sensor_id;sensor_type;location;lat;lon;timestamp;temperature;humidity
19864;DHT22;10094;48.820;9.226;2023-07-13T00:06:14;21.90;97.50
19864;DHT22;10094;48.820;9.226;2023-07-13T00:12:57;21.80;97.30
19864;DHT22;10094;48.820;9.226;2023-07-13T00:19:39;21.60;97.20
19864;DHT22;10094;48.820;9.226;2023-07-13T00:26:22;21.60;96.90
19864;DHT22;10094;48.820;9.226;2023-07-13T00:33:04;21.50;96.50
19864;DHT22;10094;48.820;9.226;2023-07-13T00:39:59;21.40;96.60
19864;DHT22;10094;48.820;9.226;2023-07-13T00:46:42;21.20;96.90
19864;DHT22;10094;48.820;9.226;2023-07-13T00:53:26;21.10;97.30
19864;DHT22;10094;48.820;9.226;2023-07-13T01:00:10;20.90;98.60
19864;DHT22;10094;48.820;9.226;2023-07-13T01:06:54;20.80;99.50
19864;DHT22;10094;48.820;9.226;2023-07-13T01:13:37;20.70;99.90
19864;DHT22;10094;48.820;9.226;2023-07-13T01:20:19;20.70;99.90
19864;DHT22;10094;48.820;9.226;2023-07-13T01:27:03;20.60;99.90
19864;DHT22;10094;48.820;9.226;2023-07-13T01:33:45;20.20;99.90
19864;DHT22;10094;48.820;9.226;2023-07-13T01:40:29;20.10;99.90
19864;DHT22;10094;48.820;9.226;2023-07-13T01:47:12;20.10;99.90
19864;DHT22;10094;48.820;9.226;2023-07-13T01:53:54;19.90;99.90
19864;DHT22;10094;48.820;9.226;2023-07-13T02:00:38;19.90;99.90
19864;DHT22;10094;48.820;9.226;2023-07-13T02:07:20;19.90;99.90
19864;DHT22;10094;48.820;9.226;2023-07-13T02:14:03;19.80;99.90
19864;DHT22;10094;48.820;9.226;2023-07-13T02:20:45;19.80;99.90
19864;DHT22;10094;48.820;9.226;2023-07-13T02:27:28;19.50;99.90
19864;DHT22;10094;48.820;9.226;2023-07-13T02:34:11;19.40;99.90
19864;DHT22;10094;48.820;9.226;2023-07-13T02:40:53;19.20;99.90
19864;DHT22;10094;48.820;9.226;2023-07-13T02:47:36;19.10;99.90
19864;DHT22;10094;48.820;9.226;2023-07-13T02:54:19;18.80;99.90
19864;DHT22;10094;48.820;9.226;2023-07-13T03:01:06;18.80;99.90
19864;DHT22;10094;48.820;9.226;2023-07-13T03:07:49;18.70;99.90
19864;DHT22;10094;48.820;9.226;2023-07-13T03:14:33;18.60;99.90
19864;DHT22;10094;48.820;9.226;2023-07-13T03:21:18;18.60;99.90
19864;DHT22;10094;48.820;9.226;2023-07-13T03:28:01;18.70;99.90
19864;DHT22;10094;48.820;9.226;2023-07-13T03:34:44;18.60;99.90
19864;DHT22;10094;48.820;9.226;2023-07-13T03:41:28;18.70;99.90
19864;DHT22;10094;48.820;9.226;2023-07-13T03:48:12;19.00;99.90
19864;DHT22;10094;48.820;9.226;2023-07-13T03:54:54;19.00;99.90
19864;DHT22;10094;48.820;9.226;2023-07-13T04:01:38;19.20;99.90
19864;DHT22;10094;48.820;9.226;2023-07-13T04:08:20;19.50;99.90
19864;DHT22;10094;48.820;9.226;2023-07-13T04:15:03;19.60;99.90
19864;DHT22;10094;48.820;9.226;2023-07-13T04:21:46;19.60;99.90
19864;DHT22;10094;48.820;9.226;2023-07-13T04:28:28;19.60;99.90
19864;DHT22;10094;48.820;9.226;2023-07-13T04:35:10;19.80;99.90
19864;DHT22;10094;48.820;9.226;2023-07-13T04:41:53;20.00;99.90
19864;DHT22;10094;48.820;9.226;2023-07-13T04:48:37;20.00;99.90
19864;DHT22;10094;48.820;9.226;2023-07-13T04:55:20;20.10;99.90
19864;DHT22;10094;48.820;9.226;2023-07-13T05:02:03;20.10;99.90
19864;DHT22;10094;48.820;9.226;2023-07-13T05:08:46;20.20;99.90
19864;DHT22;10094;48.820;9.226;2023-07-13T05:15:28;20.30;99.90
19864;DHT22;10094;48.820;9.226;2023-07-13T05:22:11;21.60;99.90
19864;DHT22;10094;48.820;9.226;2023-07-13T05:28:53;23.60;95.90
19864;DHT22;10094;48.820;9.226;2023-07-13T05:35:36;24.00;93.10
19864;DHT22;10094;48.820;9.226;2023-07-13T05:42:19;23.70;93.70
19864;DHT22;10094;48.820;9.226;2023-07-13T05:49:01;23.60;93.60
19864;DHT22;10094;48.820;9.226;2023-07-13T05:55:46;23.20;91.70
19864;DHT22;10094;48.820;9.226;2023-07-13T06:02:35;23.00;92.00
19864;DHT22;10094;48.820;9.226;2023-07-13T06:09:18;23.30;91.80
19864;DHT22;10094;48.820;9.226;2023-07-13T06:16:01;23.90;90.40
19864;DHT22;10094;48.820;9.226;2023-07-13T06:22:46;26.90;86.40
19864;DHT22;10094;48.820;9.226;2023-07-13T06:29:28;29.20;78.90
19864;DHT22;10094;48.820;9.226;2023-07-13T06:36:11;30.60;72.50
19864;DHT22;10094;48.820;9.226;2023-07-13T06:42:54;28.50;74.00
19864;DHT22;10094;48.820;9.226;2023-07-13T06:49:36;30.30;72.40
19864;DHT22;10094;48.820;9.226;2023-07-13T06:56:19;32.00;70.60
19864;DHT22;10094;48.820;9.226;2023-07-13T07:03:01;32.10;68.00
19864;DHT22;10094;48.820;9.226;2023-07-13T07:09:43;32.70;64.30
19864;DHT22;10094;48.820;9.226;2023-07-13T07:16:26;30.70;65.70
19864;DHT22;10094;48.820;9.226;2023-07-13T07:23:09;31.60;66.80
19864;DHT22;10094;48.820;9.226;2023-07-13T07:29:51;31.90;64.80
19864;DHT22;10094;48.820;9.226;2023-07-13T07:36:45;34.00;63.30
19864;DHT22;10094;48.820;9.226;2023-07-13T07:43:31;36.60;61.10
19864;DHT22;10094;48.820;9.226;2023-07-13T07:50:14;36.00;58.40
19864;DHT22;10094;48.820;9.226;2023-07-13T07:56:56;36.70;57.40
19864;DHT22;10094;48.820;9.226;2023-07-13T08:03:42;35.30;54.00
19864;DHT22;10094;48.820;9.226;2023-07-13T08:10:27;33.70;55.60
19864;DHT22;10094;48.820;9.226;2023-07-13T08:17:10;32.90;55.80
19864;DHT22;10094;48.820;9.226;2023-07-13T08:23:52;33.00;56.70
19864;DHT22;10094;48.820;9.226;2023-07-13T08:30:35;33.70;57.00
19864;DHT22;10094;48.820;9.226;2023-07-13T08:37:19;36.20;54.60
19864;DHT22;10094;48.820;9.226;2023-07-13T08:44:03;37.40;52.60
19864;DHT22;10094;48.820;9.226;2023-07-13T08:50:52;35.20;51.10
19864;DHT22;10094;48.820;9.226;2023-07-13T08:57:45;35.30;53.00
19864;DHT22;10094;48.820;9.226;2023-07-13T09:04:34;37.60;51.20
19864;DHT22;10094;48.820;9.226;2023-07-13T09:11:48;34.80;51.40
19864;DHT22;10094;48.820;9.226;2023-07-13T09:18:36;36.40;52.00
19864;DHT22;10094;48.820;9.226;2023-07-13T09:25:36;37.40;49.90
19864;DHT22;10094;48.820;9.226;2023-07-13T09:32:22;35.40;50.70
19864;DHT22;10094;48.820;9.226;2023-07-13T09:45:49;35.50;50.90
19864;DHT22;10094;48.820;9.226;2023-07-13T09:52:44;31.90;53.60
19864;DHT22;10094;48.820;9.226;2023-07-13T09:59:40;34.00;52.20
19864;DHT22;10094;48.820;9.226;2023-07-13T10:06:23;34.80;52.00
19864;DHT22;10094;48.820;9.226;2023-07-13T10:13:23;34.50;50.40
19864;DHT22;10094;48.820;9.226;2023-07-13T10:20:06;32.90;52.10
19864;DHT22;10094;48.820;9.226;2023-07-13T10:26:58;33.00;52.50
19864;DHT22;10094;48.820;9.226;2023-07-13T10:33:42;33.90;51.50
19864;DHT22;10094;48.820;9.226;2023-07-13T10:41:01;33.50;52.40
19864;DHT22;10094;48.820;9.226;2023-07-13T10:47:46;33.80;50.50
19864;DHT22;10094;48.820;9.226;2023-07-13T11:01:14;31.00;54.20
19864;DHT22;10094;48.820;9.226;2023-07-13T11:08:23;30.60;55.20
19864;DHT22;10094;48.820;9.226;2023-07-13T11:15:15;30.20;56.00
19864;DHT22;10094;48.820;9.226;2023-07-13T11:22:12;30.10;56.30
19864;DHT22;10094;48.820;9.226;2023-07-13T11:28:54;30.20;56.00
19864;DHT22;10094;48.820;9.226;2023-07-13T11:35:41;29.30;58.30
19864;DHT22;10094;48.820;9.226;2023-07-13T11:42:25;29.70;56.50
19864;DHT22;10094;48.820;9.226;2023-07-13T11:49:08;30.20;55.80
19864;DHT22;10094;48.820;9.226;2023-07-13T11:55:50;29.20;56.20
19864;DHT22;10094;48.820;9.226;2023-07-13T12:02:38;29.00;57.00
19864;DHT22;10094;48.820;9.226;2023-07-13T12:09:21;29.40;55.20
19864;DHT22;10094;48.820;9.226;2023-07-13T12:16:15;29.10;56.60
19864;DHT22;10094;48.820;9.226;2023-07-13T12:22:58;28.50;56.20
19864;DHT22;10094;48.820;9.226;2023-07-13T12:29:56;28.40;57.30
19864;DHT22;10094;48.820;9.226;2023-07-13T12:37:00;28.70;57.00
19864;DHT22;10094;48.820;9.226;2023-07-13T12:43:45;28.80;56.00
19864;DHT22;10094;48.820;9.226;2023-07-13T12:50:48;28.50;55.50
19864;DHT22;10094;48.820;9.226;2023-07-13T12:57:30;28.30;56.30
19864;DHT22;10094;48.820;9.226;2023-07-13T13:04:13;28.90;57.40
19864;DHT22;10094;48.820;9.226;2023-07-13T13:10:56;29.20;55.30
19864;DHT22;10094;48.820;9.226;2023-07-13T13:17:39;28.90;55.00
19864;DHT22;10094;48.820;9.226;2023-07-13T13:24:23;28.70;54.90
19864;DHT22;10094;48.820;9.226;2023-07-13T13:31:08;28.20;55.40
19864;DHT22;10094;48.820;9.226;2023-07-13T13:37:55;28.30;56.00
19864;DHT22;10094;48.820;9.226;2023-07-13T13:44:37;28.80;55.80
19864;DHT22;10094;48.820;9.226;2023-07-13T13:51:21;28.90;55.60
19864;DHT22;10094;48.820;9.226;2023-07-13T13:58:04;28.30;55.70
19864;DHT22;10094;48.820;9.226;2023-07-13T14:04:54;28.10;55.30
19864;DHT22;10094;48.820;9.226;2023-07-13T14:11:37;27.90;55.20
19864;DHT22;10094;48.820;9.226;2023-07-13T14:18:20;27.60;55.20
19864;DHT22;10094;48.820;9.226;2023-07-13T14:25:03;27.60;55.80
19864;DHT22;10094;48.820;9.226;2023-07-13T14:31:46;27.90;55.70
19864;DHT22;10094;48.820;9.226;2023-07-13T14:38:29;28.50;55.10
19864;DHT22;10094;48.820;9.226;2023-07-13T14:45:16;28.00;55.80
19864;DHT22;10094;48.820;9.226;2023-07-13T14:52:29;28.30;55.00
19864;DHT22;10094;48.820;9.226;2023-07-13T14:59:11;28.20;55.20
19864;DHT22;10094;48.820;9.226;2023-07-13T15:05:55;27.80;56.00
19864;DHT22;10094;48.820;9.226;2023-07-13T15:12:37;27.70;57.30
19864;DHT22;10094;48.820;9.226;2023-07-13T15:19:20;27.70;57.10
19864;DHT22;10094;48.820;9.226;2023-07-13T15:26:03;28.10;57.10
19864;DHT22;10094;48.820;9.226;2023-07-13T15:32:46;27.80;57.10
19864;DHT22;10094;48.820;9.226;2023-07-13T15:39:29;27.90;56.90
19864;DHT22;10094;48.820;9.226;2023-07-13T15:46:13;27.60;57.80
19864;DHT22;10094;48.820;9.226;2023-07-13T15:52:58;27.20;58.00
19864;DHT22;10094;48.820;9.226;2023-07-13T15:59:41;27.00;58.20
19864;DHT22;10094;48.820;9.226;2023-07-13T16:06:29;27.10;58.30
19864;DHT22;10094;48.820;9.226;2023-07-13T16:13:14;27.20;58.40
19864;DHT22;10094;48.820;9.226;2023-07-13T16:19:57;27.30;57.90
19864;DHT22;10094;48.820;9.226;2023-07-13T16:26:41;27.20;57.80
19864;DHT22;10094;48.820;9.226;2023-07-13T16:33:26;27.20;58.30
19864;DHT22;10094;48.820;9.226;2023-07-13T16:40:31;27.40;58.30
19864;DHT22;10094;48.820;9.226;2023-07-13T16:47:16;27.30;57.60
19864;DHT22;10094;48.820;9.226;2023-07-13T16:54:00;27.10;58.30
19864;DHT22;10094;48.820;9.226;2023-07-13T17:00:42;26.80;58.60
19864;DHT22;10094;48.820;9.226;2023-07-13T17:07:25;26.90;59.20
19864;DHT22;10094;48.820;9.226;2023-07-13T17:14:19;26.80;59.00
19864;DHT22;10094;48.820;9.226;2023-07-13T17:21:03;26.90;58.40
19864;DHT22;10094;48.820;9.226;2023-07-13T17:27:47;26.40;59.20
19864;DHT22;10094;48.820;9.226;2023-07-13T17:34:30;26.30;59.60
19864;DHT22;10094;48.820;9.226;2023-07-13T17:41:13;26.30;59.60
19864;DHT22;10094;48.820;9.226;2023-07-13T17:47:59;26.20;59.80
19864;DHT22;10094;48.820;9.226;2023-07-13T17:54:44;26.20;60.20
19864;DHT22;10094;48.820;9.226;2023-07-13T18:01:27;26.20;60.60
19864;DHT22;10094;48.820;9.226;2023-07-13T18:08:26;26.20;60.90
19864;DHT22;10094;48.820;9.226;2023-07-13T18:15:10;25.90;61.10
19864;DHT22;10094;48.820;9.226;2023-07-13T18:21:53;25.60;61.40
19864;DHT22;10094;48.820;9.226;2023-07-13T18:28:35;25.40;61.80
19864;DHT22;10094;48.820;9.226;2023-07-13T18:35:24;25.20;62.40
19864;DHT22;10094;48.820;9.226;2023-07-13T18:42:09;25.20;62.90
19864;DHT22;10094;48.820;9.226;2023-07-13T18:48:52;24.90;62.70
19864;DHT22;10094;48.820;9.226;2023-07-13T18:55:35;24.80;63.10
19864;DHT22;10094;48.820;9.226;2023-07-13T19:02:17;24.70;63.60
19864;DHT22;10094;48.820;9.226;2023-07-13T19:09:04;24.60;64.20
19864;DHT22;10094;48.820;9.226;2023-07-13T19:15:47;24.40;65.10
19864;DHT22;10094;48.820;9.226;2023-07-13T19:22:29;24.30;68.10
19864;DHT22;10094;48.820;9.226;2023-07-13T19:29:13;24.00;68.30
19864;DHT22;10094;48.820;9.226;2023-07-13T19:35:57;23.70;69.20
19864;DHT22;10094;48.820;9.226;2023-07-13T19:42:39;23.60;69.80
19864;DHT22;10094;48.820;9.226;2023-07-13T19:49:22;23.70;70.00
19864;DHT22;10094;48.820;9.226;2023-07-13T19:56:04;23.60;71.00
19864;DHT22;10094;48.820;9.226;2023-07-13T20:02:47;23.60;73.20
19864;DHT22;10094;48.820;9.226;2023-07-13T20:09:30;23.40;80.10
19864;DHT22;10094;48.820;9.226;2023-07-13T20:16:25;23.30;77.60
19864;DHT22;10094;48.820;9.226;2023-07-13T20:23:19;23.10;80.60
19864;DHT22;10094;48.820;9.226;2023-07-13T20:30:03;22.80;85.50
19864;DHT22;10094;48.820;9.226;2023-07-13T20:36:48;22.60;80.50
19864;DHT22;10094;48.820;9.226;2023-07-13T20:43:30;22.40;85.10
19864;DHT22;10094;48.820;9.226;2023-07-13T20:50:21;22.30;83.80
19864;DHT22;10094;48.820;9.226;2023-07-13T20:57:07;22.30;86.00
19864;DHT22;10094;48.820;9.226;2023-07-13T21:03:56;22.10;85.10
19864;DHT22;10094;48.820;9.226;2023-07-13T21:10:39;22.00;87.60
19864;DHT22;10094;48.820;9.226;2023-07-13T21:17:21;21.90;89.80
19864;DHT22;10094;48.820;9.226;2023-07-13T21:24:04;21.90;90.60
19864;DHT22;10094;48.820;9.226;2023-07-13T21:30:47;21.80;90.50
19864;DHT22;10094;48.820;9.226;2023-07-13T21:37:30;21.70;93.10
19864;DHT22;10094;48.820;9.226;2023-07-13T21:44:26;21.50;93.40
19864;DHT22;10094;48.820;9.226;2023-07-13T21:51:23;21.40;94.30
19864;DHT22;10094;48.820;9.226;2023-07-13T21:58:33;21.30;94.10
19864;DHT22;10094;48.820;9.226;2023-07-13T22:05:16;21.30;95.60
19864;DHT22;10094;48.820;9.226;2023-07-13T22:11:59;21.10;97.30
19864;DHT22;10094;48.820;9.226;2023-07-13T22:18:41;20.90;98.50
19864;DHT22;10094;48.820;9.226;2023-07-13T22:25:24;20.90;98.10
19864;DHT22;10094;48.820;9.226;2023-07-13T22:32:09;20.80;99.90
19864;DHT22;10094;48.820;9.226;2023-07-13T22:38:53;20.70;99.90
19864;DHT22;10094;48.820;9.226;2023-07-13T22:45:36;20.40;99.90
19864;DHT22;10094;48.820;9.226;2023-07-13T22:52:18;20.10;99.90
19864;DHT22;10094;48.820;9.226;2023-07-13T22:59:01;19.90;99.90
19864;DHT22;10094;48.820;9.226;2023-07-13T23:05:44;20.00;99.90
19864;DHT22;10094;48.820;9.226;2023-07-13T23:12:27;20.00;99.90
19864;DHT22;10094;48.820;9.226;2023-07-13T23:19:18;19.90;99.90
19864;DHT22;10094;48.820;9.226;2023-07-13T23:26:00;19.80;99.90
19864;DHT22;10094;48.820;9.226;2023-07-13T23:32:44;19.50;99.90
19864;DHT22;10094;48.820;9.226;2023-07-13T23:39:27;19.20;99.90
19864;DHT22;10094;48.820;9.226;2023-07-13T23:53:16;19.20;99.90
19864;DHT22;10094;48.820;9.226;2023-07-13T23:59:58;19.20;99.90
